sensor_id;sensor_type;location;lat;lon;timestamp;temperature;humidity
28244;DHT22;15510;52.512;13.300;2023-03-01T00:01:02;1.30;99.90
28244;DHT22;15510;52.512;13.300;2023-03-01T00:03:28;1.30;99.90
28244;DHT22;15510;52.512;13.300;2023-03-01T00:05:54;1.30;99.90
28244;DHT22;15510;52.512;13.300;2023-03-01T00:08:19;1.30;99.90
28244;DHT22;15510;52.512;13.300;2023-03-01T00:10:45;1.30;99.90
28244;DHT22;15510;52.512;13.300;2023-03-01T00:13:11;1.30;99.90
28244;DHT22;15510;52.512;13.300;2023-03-01T00:15:40;1.30;99.90
28244;DHT22;15510;52.512;13.300;2023-03-01T00:18:07;1.20;99.90
28244;DHT22;15510;52.512;13.300;2023-03-01T00:20:34;1.20;99.90
28244;DHT22;15510;52.512;13.300;2023-03-01T00:22:59;1.20;99.90
28244;DHT22;15510;52.512;13.300;2023-03-01T00:25:25;1.20;99.90
28244;DHT22;15510;52.512;13.300;2023-03-01T00:27:51;1.20;99.90
28244;DHT22;15510;52.512;13.300;2023-03-01T00:30:17;1.20;99.90
28244;DHT22;15510;52.512;13.300;2023-03-01T00:32:42;1.20;99.90
28244;DHT22;15510;52.512;13.300;2023-03-01T00:35:08;1.20;99.90
28244;DHT22;15510;52.512;13.300;2023-03-01T00:37:34;1.10;99.90
28244;DHT22;15510;52.512;13.300;2023-03-01T00:40:00;1.00;99.90
28244;DHT22;15510;52.512;13.300;2023-03-01T00:42:26;1.00;99.90
28244;DHT22;15510;52.512;13.300;2023-03-01T00:44:52;1.00;99.90
28244;DHT22;15510;52.512;13.300;2023-03-01T00:47:17;1.00;99.90
28244;DHT22;15510;52.512;13.300;2023-03-01T00:49:43;1.00;99.90
28244;DHT22;15510;52.512;13.300;2023-03-01T00:52:09;1.00;99.90
28244;DHT22;15510;52.512;13.300;2023-03-01T00:54:34;1.00;99.90
28244;DHT22;15510;52.512;13.300;2023-03-01T00:57:00;1.00;99.90
28244;DHT22;15510;52.512;13.300;2023-03-01T00:59:26;1.00;99.90
28244;DHT22;15510;52.512;13.300;2023-03-01T01:01:51;0.90;99.90
28244;DHT22;15510;52.512;13.300;2023-03-01T01:04:17;0.80;99.90
28244;DHT22;15510;52.512;13.300;2023-03-01T01:06:45;0.80;99.90
28244;DHT22;15510;52.512;13.300;2023-03-01T01:09:13;0.90;99.90
28244;DHT22;15510;52.512;13.300;2023-03-01T01:11:51;0.80;99.90
28244;DHT22;15510;52.512;13.300;2023-03-01T01:14:18;0.80;99.90
28244;DHT22;15510;52.512;13.300;2023-03-01T01:16:44;0.80;99.90
28244;DHT22;15510;52.512;13.300;2023-03-01T01:19:11;0.70;99.90
28244;DHT22;15510;52.512;13.300;2023-03-01T01:21:37;0.60;99.90
28244;DHT22;15510;52.512;13.300;2023-03-01T01:24:04;0.60;99.90
28244;DHT22;15510;52.512;13.300;2023-03-01T01:26:33;0.60;99.90
28244;DHT22;15510;52.512;13.300;2023-03-01T01:29:02;0.60;99.90
28244;DHT22;15510;52.512;13.300;2023-03-01T01:31:29;0.60;99.90
28244;DHT22;15510;52.512;13.300;2023-03-01T01:33:56;0.50;99.90
28244;DHT22;15510;52.512;13.300;2023-03-01T01:36:23;0.50;99.90
28244;DHT22;15510;52.512;13.300;2023-03-01T01:38:49;0.50;99.90
28244;DHT22;15510;52.512;13.300;2023-03-01T01:41:15;0.50;99.90
28244;DHT22;15510;52.512;13.300;2023-03-01T01:43:43;0.50;99.90
28244;DHT22;15510;52.512;13.300;2023-03-01T01:46:25;0.40;99.90
28244;DHT22;15510;52.512;13.300;2023-03-01T01:49:11;0.40;99.90
28244;DHT22;15510;52.512;13.300;2023-03-01T01:51:42;0.40;99.90
28244;DHT22;15510;52.512;13.300;2023-03-01T01:54:14;0.50;99.90
28244;DHT22;15510;52.512;13.300;2023-03-01T01:56:45;0.50;99.90
28244;DHT22;15510;52.512;13.300;2023-03-01T01:59:14;0.50;99.90
28244;DHT22;15510;52.512;13.300;2023-03-01T02:01:40;0.60;99.90
28244;DHT22;15510;52.512;13.300;2023-03-01T02:04:06;0.60;99.90
28244;DHT22;15510;52.512;13.300;2023-03-01T02:06:46;0.60;99.90
28244;DHT22;15510;52.512;13.300;2023-03-01T02:09:14;0.60;99.90
28244;DHT22;15510;52.512;13.300;2023-03-01T02:11:41;0.70;99.90
28244;DHT22;15510;52.512;13.300;2023-03-01T02:14:08;0.80;99.90
28244;DHT22;15510;52.512;13.300;2023-03-01T02:16:34;0.80;99.90
28244;DHT22;15510;52.512;13.300;2023-03-01T02:19:00;0.80;99.90
28244;DHT22;15510;52.512;13.300;2023-03-01T02:21:44;0.70;99.90
28244;DHT22;15510;52.512;13.300;2023-03-01T02:26:55;0.80;99.90
28244;DHT22;15510;52.512;13.300;2023-03-01T02:29:22;0.70;99.90
28244;DHT22;15510;52.512;13.300;2023-03-01T02:31:49;0.70;99.90
28244;DHT22;15510;52.512;13.300;2023-03-01T02:34:22;0.70;99.90
28244;DHT22;15510;52.512;13.300;2023-03-01T02:37:04;0.70;99.90
28244;DHT22;15510;52.512;13.300;2023-03-01T02:39:37;0.60;99.90
28244;DHT22;15510;52.512;13.300;2023-03-01T02:42:11;0.60;99.90
28244;DHT22;15510;52.512;13.300;2023-03-01T02:44:37;0.60;99.90
28244;DHT22;15510;52.512;13.300;2023-03-01T02:47:04;0.60;99.90
28244;DHT22;15510;52.512;13.300;2023-03-01T02:49:33;0.50;99.90
28244;DHT22;15510;52.512;13.300;2023-03-01T02:54:52;0.60;99.90
28244;DHT22;15510;52.512;13.300;2023-03-01T02:57:22;0.60;99.90
28244;DHT22;15510;52.512;13.300;2023-03-01T02:59:50;0.60;99.90
28244;DHT22;15510;52.512;13.300;2023-03-01T03:02:22;0.60;99.90
28244;DHT22;15510;52.512;13.300;2023-03-01T03:05:25;0.60;99.90
28244;DHT22;15510;52.512;13.300;2023-03-01T03:07:54;0.60;99.90
28244;DHT22;15510;52.512;13.300;2023-03-01T03:10:24;0.60;99.90
28244;DHT22;15510;52.512;13.300;2023-03-01T03:12:52;0.50;99.90
28244;DHT22;15510;52.512;13.300;2023-03-01T03:15:18;0.50;99.90
28244;DHT22;15510;52.512;13.300;2023-03-01T03:17:46;0.50;99.90
28244;DHT22;15510;52.512;13.300;2023-03-01T03:20:14;0.50;99.90
28244;DHT22;15510;52.512;13.300;2023-03-01T03:22:49;0.50;99.90
28244;DHT22;15510;52.512;13.300;2023-03-01T03:25:16;0.40;99.90
28244;DHT22;15510;52.512;13.300;2023-03-01T03:27:43;0.40;99.90
28244;DHT22;15510;52.512;13.300;2023-03-01T03:30:12;0.50;99.90
28244;DHT22;15510;52.512;13.300;2023-03-01T03:32:44;0.50;99.90
28244;DHT22;15510;52.512;13.300;2023-03-01T03:35:23;0.50;99.90
28244;DHT22;15510;52.512;13.300;2023-03-01T03:37:50;0.50;99.90
28244;DHT22;15510;52.512;13.300;2023-03-01T03:40:30;0.60;99.90
28244;DHT22;15510;52.512;13.300;2023-03-01T03:42:57;0.50;99.90
28244;DHT22;15510;52.512;13.300;2023-03-01T03:45:22;0.50;99.90
28244;DHT22;15510;52.512;13.300;2023-03-01T03:47:48;0.50;99.90
28244;DHT22;15510;52.512;13.300;2023-03-01T03:50:16;0.40;99.90
28244;DHT22;15510;52.512;13.300;2023-03-01T03:52:42;0.40;99.90
28244;DHT22;15510;52.512;13.300;2023-03-01T03:55:10;0.40;99.90
28244;DHT22;15510;52.512;13.300;2023-03-01T03:57:40;0.40;99.90
28244;DHT22;15510;52.512;13.300;2023-03-01T04:00:09;0.40;99.90
28244;DHT22;15510;52.512;13.300;2023-03-01T04:02:42;0.30;99.90
28244;DHT22;15510;52.512;13.300;2023-03-01T04:05:10;0.30;99.90
28244;DHT22;15510;52.512;13.300;2023-03-01T04:07:36;0.30;99.90
28244;DHT22;15510;52.512;13.300;2023-03-01T04:10:03;0.40;99.90
28244;DHT22;15510;52.512;13.300;2023-03-01T04:12:29;0.40;99.90
28244;DHT22;15510;52.512;13.300;2023-03-01T04:14:55;0.30;99.90
28244;DHT22;15510;52.512;13.300;2023-03-01T04:17:21;0.30;99.90
28244;DHT22;15510;52.512;13.300;2023-03-01T04:19:46;0.20;99.90
28244;DHT22;15510;52.512;13.300;2023-03-01T04:22:14;0.20;99.90
28244;DHT22;15510;52.512;13.300;2023-03-01T04:24:46;0.20;99.90
28244;DHT22;15510;52.512;13.300;2023-03-01T04:27:12;0.20;99.90
28244;DHT22;15510;52.512;13.300;2023-03-01T04:29:38;0.20;99.90
28244;DHT22;15510;52.512;13.300;2023-03-01T04:32:03;0.20;99.90
28244;DHT22;15510;52.512;13.300;2023-03-01T04:34:30;0.20;99.90
28244;DHT22;15510;52.512;13.300;2023-03-01T04:36:55;0.20;99.90
28244;DHT22;15510;52.512;13.300;2023-03-01T04:39:21;0.20;99.90
28244;DHT22;15510;52.512;13.300;2023-03-01T04:41:47;0.20;99.90
28244;DHT22;15510;52.512;13.300;2023-03-01T04:46:49;0.10;99.90
28244;DHT22;15510;52.512;13.300;2023-03-01T04:49:15;0.10;99.90
28244;DHT22;15510;52.512;13.300;2023-03-01T04:51:41;0.00;99.90
28244;DHT22;15510;52.512;13.300;2023-03-01T04:54:07;0.10;99.90
28244;DHT22;15510;52.512;13.300;2023-03-01T04:56:34;0.00;99.90
28244;DHT22;15510;52.512;13.300;2023-03-01T04:59:00;0.00;99.90
28244;DHT22;15510;52.512;13.300;2023-03-01T05:01:26;0.00;99.90
28244;DHT22;15510;52.512;13.300;2023-03-01T05:03:51;0.00;99.90
28244;DHT22;15510;52.512;13.300;2023-03-01T05:06:18;0.00;99.90
28244;DHT22;15510;52.512;13.300;2023-03-01T05:08:45;0.00;99.90
28244;DHT22;15510;52.512;13.300;2023-03-01T05:11:11;0.00;99.90
28244;DHT22;15510;52.512;13.300;2023-03-01T05:13:38;0.00;99.90
28244;DHT22;15510;52.512;13.300;2023-03-01T05:16:06;-0.10;99.90
28244;DHT22;15510;52.512;13.300;2023-03-01T05:18:33;-0.10;99.90
28244;DHT22;15510;52.512;13.300;2023-03-01T05:21:11;-0.10;99.90
28244;DHT22;15510;52.512;13.300;2023-03-01T05:23:38;-0.10;99.90
28244;DHT22;15510;52.512;13.300;2023-03-01T05:26:05;0.00;99.90
28244;DHT22;15510;52.512;13.300;2023-03-01T05:28:31;-0.10;99.90
28244;DHT22;15510;52.512;13.300;2023-03-01T05:30:57;-0.10;99.90
28244;DHT22;15510;52.512;13.300;2023-03-01T05:33:24;-0.20;99.90
28244;DHT22;15510;52.512;13.300;2023-03-01T05:35:50;-0.20;99.90
28244;DHT22;15510;52.512;13.300;2023-03-01T05:38:17;-0.20;99.90
28244;DHT22;15510;52.512;13.300;2023-03-01T05:40:44;-0.20;99.90
28244;DHT22;15510;52.512;13.300;2023-03-01T05:43:11;-0.20;99.90
28244;DHT22;15510;52.512;13.300;2023-03-01T05:45:38;-0.20;99.90
28244;DHT22;15510;52.512;13.300;2023-03-01T05:48:05;-0.20;99.90
28244;DHT22;15510;52.512;13.300;2023-03-01T05:50:36;-0.30;99.90
28244;DHT22;15510;52.512;13.300;2023-03-01T05:53:15;-0.20;99.90
28244;DHT22;15510;52.512;13.300;2023-03-01T05:55:41;-0.20;99.90
28244;DHT22;15510;52.512;13.300;2023-03-01T05:58:11;-0.30;99.90
28244;DHT22;15510;52.512;13.300;2023-03-01T06:00:37;-0.20;99.90
28244;DHT22;15510;52.512;13.300;2023-03-01T06:03:03;-0.30;99.90
28244;DHT22;15510;52.512;13.300;2023-03-01T06:05:29;-0.30;99.90
28244;DHT22;15510;52.512;13.300;2023-03-01T06:07:55;-0.30;99.90
28244;DHT22;15510;52.512;13.300;2023-03-01T06:10:24;-0.20;99.90
28244;DHT22;15510;52.512;13.300;2023-03-01T06:12:49;-0.20;99.90
28244;DHT22;15510;52.512;13.300;2023-03-01T06:15:16;-0.20;99.90
28244;DHT22;15510;52.512;13.300;2023-03-01T06:17:43;-0.20;99.90
28244;DHT22;15510;52.512;13.300;2023-03-01T06:20:21;-0.10;99.90
28244;DHT22;15510;52.512;13.300;2023-03-01T06:22:47;-0.10;99.90
28244;DHT22;15510;52.512;13.300;2023-03-01T06:25:18;0.00;99.90
28244;DHT22;15510;52.512;13.300;2023-03-01T06:27:45;0.00;99.90
28244;DHT22;15510;52.512;13.300;2023-03-01T06:30:12;0.00;99.90
28244;DHT22;15510;52.512;13.300;2023-03-01T06:32:40;0.00;99.90
28244;DHT22;15510;52.512;13.300;2023-03-01T06:35:13;0.00;99.90
28244;DHT22;15510;52.512;13.300;2023-03-01T06:37:40;0.10;99.90
28244;DHT22;15510;52.512;13.300;2023-03-01T06:40:07;0.10;99.90
28244;DHT22;15510;52.512;13.300;2023-03-01T06:42:37;0.10;99.90
28244;DHT22;15510;52.512;13.300;2023-03-01T06:45:05;0.10;99.90
28244;DHT22;15510;52.512;13.300;2023-03-01T06:47:32;0.10;99.90
28244;DHT22;15510;52.512;13.300;2023-03-01T06:49:59;0.10;99.90
28244;DHT22;15510;52.512;13.300;2023-03-01T06:52:25;0.10;99.90
28244;DHT22;15510;52.512;13.300;2023-03-01T06:54:51;0.10;99.90
28244;DHT22;15510;52.512;13.300;2023-03-01T06:57:17;0.10;99.90
28244;DHT22;15510;52.512;13.300;2023-03-01T06:59:42;0.20;99.90
28244;DHT22;15510;52.512;13.300;2023-03-01T07:02:10;0.30;99.90
28244;DHT22;15510;52.512;13.300;2023-03-01T07:04:37;0.30;99.90
28244;DHT22;15510;52.512;13.300;2023-03-01T07:07:02;0.30;99.90
28244;DHT22;15510;52.512;13.300;2023-03-01T07:09:28;0.30;99.90
28244;DHT22;15510;52.512;13.300;2023-03-01T07:11:54;0.40;99.90
28244;DHT22;15510;52.512;13.300;2023-03-01T07:14:22;0.40;99.90
28244;DHT22;15510;52.512;13.300;2023-03-01T07:16:51;0.40;99.90
28244;DHT22;15510;52.512;13.300;2023-03-01T07:19:17;0.40;99.90
28244;DHT22;15510;52.512;13.300;2023-03-01T07:21:43;0.50;99.90
28244;DHT22;15510;52.512;13.300;2023-03-01T07:24:09;0.50;99.90
28244;DHT22;15510;52.512;13.300;2023-03-01T07:26:35;0.60;99.90
28244;DHT22;15510;52.512;13.300;2023-03-01T07:29:02;0.60;99.90
28244;DHT22;15510;52.512;13.300;2023-03-01T07:31:28;0.70;99.90
28244;DHT22;15510;52.512;13.300;2023-03-01T07:33:54;0.80;99.90
28244;DHT22;15510;52.512;13.300;2023-03-01T07:36:20;0.90;99.90
28244;DHT22;15510;52.512;13.300;2023-03-01T07:38:46;0.90;99.90
28244;DHT22;15510;52.512;13.300;2023-03-01T07:41:12;1.00;99.90
28244;DHT22;15510;52.512;13.300;2023-03-01T07:43:38;1.10;99.90
28244;DHT22;15510;52.512;13.300;2023-03-01T07:46:04;1.20;99.90
28244;DHT22;15510;52.512;13.300;2023-03-01T07:48:31;1.30;99.90
28244;DHT22;15510;52.512;13.300;2023-03-01T07:51:01;1.40;99.90
28244;DHT22;15510;52.512;13.300;2023-03-01T07:53:28;1.40;99.90
28244;DHT22;15510;52.512;13.300;2023-03-01T07:56:06;1.50;99.90
28244;DHT22;15510;52.512;13.300;2023-03-01T07:58:34;1.60;99.90
28244;DHT22;15510;52.512;13.300;2023-03-01T08:01:06;1.70;99.90
28244;DHT22;15510;52.512;13.300;2023-03-01T08:03:32;1.80;99.90
28244;DHT22;15510;52.512;13.300;2023-03-01T08:06:03;1.90;99.90
28244;DHT22;15510;52.512;13.300;2023-03-01T08:08:30;2.00;99.90
28244;DHT22;15510;52.512;13.300;2023-03-01T08:11:00;2.00;99.90
28244;DHT22;15510;52.512;13.300;2023-03-01T08:13:26;2.20;99.90
28244;DHT22;15510;52.512;13.300;2023-03-01T08:16:05;2.20;99.90
28244;DHT22;15510;52.512;13.300;2023-03-01T08:18:31;2.30;99.90
28244;DHT22;15510;52.512;13.300;2023-03-01T08:21:04;2.30;99.90
28244;DHT22;15510;52.512;13.300;2023-03-01T08:23:31;2.40;99.90
28244;DHT22;15510;52.512;13.300;2023-03-01T08:26:07;2.50;99.90
28244;DHT22;15510;52.512;13.300;2023-03-01T08:28:33;2.60;99.90
28244;DHT22;15510;52.512;13.300;2023-03-01T08:31:00;2.70;99.90
28244;DHT22;15510;52.512;13.300;2023-03-01T08:33:25;2.90;99.90
28244;DHT22;15510;52.512;13.300;2023-03-01T08:35:51;2.90;99.90
28244;DHT22;15510;52.512;13.300;2023-03-01T08:38:17;3.00;99.90
28244;DHT22;15510;52.512;13.300;2023-03-01T08:40:43;3.20;99.90
28244;DHT22;15510;52.512;13.300;2023-03-01T08:43:08;3.30;99.90
28244;DHT22;15510;52.512;13.300;2023-03-01T08:45:34;3.40;99.90
28244;DHT22;15510;52.512;13.300;2023-03-01T08:48:00;3.50;99.90
28244;DHT22;15510;52.512;13.300;2023-03-01T08:50:26;3.60;99.90
28244;DHT22;15510;52.512;13.300;2023-03-01T08:52:51;3.70;99.90
28244;DHT22;15510;52.512;13.300;2023-03-01T08:55:17;3.80;99.90
28244;DHT22;15510;52.512;13.300;2023-03-01T08:57:43;3.90;99.90
28244;DHT22;15510;52.512;13.300;2023-03-01T09:00:10;4.00;99.90
28244;DHT22;15510;52.512;13.300;2023-03-01T09:02:37;4.10;99.90
28244;DHT22;15510;52.512;13.300;2023-03-01T09:05:03;4.20;99.90
28244;DHT22;15510;52.512;13.300;2023-03-01T09:07:29;4.30;99.90
28244;DHT22;15510;52.512;13.300;2023-03-01T09:09:55;4.30;99.90
28244;DHT22;15510;52.512;13.300;2023-03-01T09:12:20;4.40;99.90
28244;DHT22;15510;52.512;13.300;2023-03-01T09:14:46;4.40;99.90
28244;DHT22;15510;52.512;13.300;2023-03-01T09:17:12;4.40;99.90
28244;DHT22;15510;52.512;13.300;2023-03-01T09:19:38;4.50;99.90
28244;DHT22;15510;52.512;13.300;2023-03-01T09:22:04;4.60;99.90
28244;DHT22;15510;52.512;13.300;2023-03-01T09:24:30;4.60;99.90
28244;DHT22;15510;52.512;13.300;2023-03-01T09:26:56;4.70;99.90
28244;DHT22;15510;52.512;13.300;2023-03-01T09:29:22;4.70;99.90
28244;DHT22;15510;52.512;13.300;2023-03-01T09:31:48;4.80;99.90
28244;DHT22;15510;52.512;13.300;2023-03-01T09:34:14;4.90;99.90
28244;DHT22;15510;52.512;13.300;2023-03-01T09:36:44;4.90;99.90
28244;DHT22;15510;52.512;13.300;2023-03-01T09:39:10;5.00;99.90
28244;DHT22;15510;52.512;13.300;2023-03-01T09:41:57;5.00;99.90
28244;DHT22;15510;52.512;13.300;2023-03-01T09:44:29;5.10;99.90
28244;DHT22;15510;52.512;13.300;2023-03-01T09:46:57;5.00;99.90
28244;DHT22;15510;52.512;13.300;2023-03-01T09:49:26;5.00;99.90
28244;DHT22;15510;52.512;13.300;2023-03-01T09:54:45;5.10;99.90
28244;DHT22;15510;52.512;13.300;2023-03-01T10:02:51;5.30;99.90
28244;DHT22;15510;52.512;13.300;2023-03-01T10:10:32;5.30;99.90
28244;DHT22;15510;52.512;13.300;2023-03-01T10:13:02;5.40;99.90
28244;DHT22;15510;52.512;13.300;2023-03-01T10:15:35;5.40;99.90
28244;DHT22;15510;52.512;13.300;2023-03-01T10:18:12;5.40;99.90
28244;DHT22;15510;52.512;13.300;2023-03-01T10:20:54;5.50;99.90
28244;DHT22;15510;52.512;13.300;2023-03-01T10:23:27;5.60;99.90
28244;DHT22;15510;52.512;13.300;2023-03-01T10:26:21;5.60;99.90
28244;DHT22;15510;52.512;13.300;2023-03-01T10:28:58;5.60;99.90
28244;DHT22;15510;52.512;13.300;2023-03-01T10:31:43;5.60;99.90
28244;DHT22;15510;52.512;13.300;2023-03-01T10:34:13;5.70;99.90
28244;DHT22;15510;52.512;13.300;2023-03-01T10:36:40;5.70;99.90
28244;DHT22;15510;52.512;13.300;2023-03-01T10:39:19;5.70;99.90
28244;DHT22;15510;52.512;13.300;2023-03-01T10:41:57;5.60;99.90
28244;DHT22;15510;52.512;13.300;2023-03-01T10:47:02;5.60;99.90
28244;DHT22;15510;52.512;13.300;2023-03-01T10:49:29;5.70;99.90
28244;DHT22;15510;52.512;13.300;2023-03-01T10:51:55;5.80;99.90
28244;DHT22;15510;52.512;13.300;2023-03-01T10:54:30;5.90;99.90
28244;DHT22;15510;52.512;13.300;2023-03-01T10:57:04;5.90;99.90
28244;DHT22;15510;52.512;13.300;2023-03-01T10:59:34;6.00;99.90
28244;DHT22;15510;52.512;13.300;2023-03-01T11:02:25;6.20;99.90
28244;DHT22;15510;52.512;13.300;2023-03-01T11:05:01;6.40;99.90
28244;DHT22;15510;52.512;13.300;2023-03-01T11:07:27;6.50;99.90
28244;DHT22;15510;52.512;13.300;2023-03-01T11:09:53;6.70;99.90
28244;DHT22;15510;52.512;13.300;2023-03-01T11:12:20;6.80;99.90
28244;DHT22;15510;52.512;13.300;2023-03-01T11:14:54;7.10;99.90
28244;DHT22;15510;52.512;13.300;2023-03-01T11:22:53;8.10;99.90
28244;DHT22;15510;52.512;13.300;2023-03-01T11:25:40;8.80;99.90
28244;DHT22;15510;52.512;13.300;2023-03-01T11:28:10;9.70;98.90
28244;DHT22;15510;52.512;13.300;2023-03-01T11:30:49;10.10;95.90
28244;DHT22;15510;52.512;13.300;2023-03-01T11:33:24;10.40;92.70
28244;DHT22;15510;52.512;13.300;2023-03-01T11:36:03;10.40;90.30
28244;DHT22;15510;52.512;13.300;2023-03-01T11:38:34;10.90;90.40
28244;DHT22;15510;52.512;13.300;2023-03-01T11:41:19;11.20;90.30
28244;DHT22;15510;52.512;13.300;2023-03-01T12:06:10;13.20;66.60
28244;DHT22;15510;52.512;13.300;2023-03-01T12:15:04;13.10;63.30
28244;DHT22;15510;52.512;13.300;2023-03-01T12:20:28;13.40;61.50
28244;DHT22;15510;52.512;13.300;2023-03-01T12:31:28;13.30;60.30
28244;DHT22;15510;52.512;13.300;2023-03-01T12:40:23;13.80;56.90
28244;DHT22;15510;52.512;13.300;2023-03-01T12:45:54;13.90;55.10
28244;DHT22;15510;52.512;13.300;2023-03-01T12:51:20;14.00;56.00
28244;DHT22;15510;52.512;13.300;2023-03-01T12:53:50;14.30;55.50
28244;DHT22;15510;52.512;13.300;2023-03-01T12:56:25;14.60;55.40
28244;DHT22;15510;52.512;13.300;2023-03-01T12:59:07;13.90;54.50
28244;DHT22;15510;52.512;13.300;2023-03-01T13:01:53;13.60;55.10
28244;DHT22;15510;52.512;13.300;2023-03-01T13:12:52;15.60;52.70
28244;DHT22;15510;52.512;13.300;2023-03-01T13:15:28;16.30;51.10
28244;DHT22;15510;52.512;13.300;2023-03-01T13:17:57;16.90;49.20
28244;DHT22;15510;52.512;13.300;2023-03-01T13:20:47;16.50;49.10
28244;DHT22;15510;52.512;13.300;2023-03-01T13:26:15;16.40;44.80
28244;DHT22;15510;52.512;13.300;2023-03-01T13:33:54;13.60;47.30
28244;DHT22;15510;52.512;13.300;2023-03-01T13:41:54;11.20;50.00
28244;DHT22;15510;52.512;13.300;2023-03-01T13:49:46;9.90;55.00
28244;DHT22;15510;52.512;13.300;2023-03-01T13:52:39;9.70;55.30
28244;DHT22;15510;52.512;13.300;2023-03-01T13:57:50;9.20;57.50
28244;DHT22;15510;52.512;13.300;2023-03-01T14:03:17;9.00;58.70
28244;DHT22;15510;52.512;13.300;2023-03-01T14:08:29;8.70;59.60
28244;DHT22;15510;52.512;13.300;2023-03-01T14:21:32;8.40;66.00
28244;DHT22;15510;52.512;13.300;2023-03-01T14:23:58;8.40;65.30
28244;DHT22;15510;52.512;13.300;2023-03-01T14:26:24;8.40;69.50
28244;DHT22;15510;52.512;13.300;2023-03-01T14:28:50;8.50;69.50
28244;DHT22;15510;52.512;13.300;2023-03-01T14:31:30;8.40;69.40
28244;DHT22;15510;52.512;13.300;2023-03-01T14:33:57;8.40;69.80
28244;DHT22;15510;52.512;13.300;2023-03-01T14:36:29;8.30;70.30
28244;DHT22;15510;52.512;13.300;2023-03-01T14:38:55;8.20;71.30
28244;DHT22;15510;52.512;13.300;2023-03-01T14:41:26;8.20;72.10
28244;DHT22;15510;52.512;13.300;2023-03-01T14:43:59;8.20;74.10
28244;DHT22;15510;52.512;13.300;2023-03-01T14:46:30;8.20;76.80
28244;DHT22;15510;52.512;13.300;2023-03-01T14:49:02;8.20;77.10
28244;DHT22;15510;52.512;13.300;2023-03-01T14:51:28;8.20;78.60
28244;DHT22;15510;52.512;13.300;2023-03-01T14:53:54;8.20;77.90
28244;DHT22;15510;52.512;13.300;2023-03-01T14:56:20;8.10;79.10
28244;DHT22;15510;52.512;13.300;2023-03-01T14:58:50;8.20;78.80
28244;DHT22;15510;52.512;13.300;2023-03-01T15:01:17;8.10;78.70
28244;DHT22;15510;52.512;13.300;2023-03-01T15:03:46;8.10;82.10
28244;DHT22;15510;52.512;13.300;2023-03-01T15:06:17;8.10;81.70
28244;DHT22;15510;52.512;13.300;2023-03-01T15:08:49;8.10;83.00
28244;DHT22;15510;52.512;13.300;2023-03-01T15:11:30;8.00;87.10
28244;DHT22;15510;52.512;13.300;2023-03-01T15:13:57;8.00;89.10
28244;DHT22;15510;52.512;13.300;2023-03-01T15:16:26;8.00;88.10
28244;DHT22;15510;52.512;13.300;2023-03-01T15:19:03;8.00;88.10
28244;DHT22;15510;52.512;13.300;2023-03-01T15:21:33;7.90;90.30
28244;DHT22;15510;52.512;13.300;2023-03-01T15:24:21;7.90;91.00
28244;DHT22;15510;52.512;13.300;2023-03-01T15:26:54;7.90;91.80
28244;DHT22;15510;52.512;13.300;2023-03-01T15:29:30;7.90;92.10
28244;DHT22;15510;52.512;13.300;2023-03-01T15:32:05;7.90;90.80
28244;DHT22;15510;52.512;13.300;2023-03-01T15:34:36;7.90;91.60
28244;DHT22;15510;52.512;13.300;2023-03-01T15:37:35;7.90;93.10
28244;DHT22;15510;52.512;13.300;2023-03-01T15:39:54;7.80;92.00
28244;DHT22;15510;52.512;13.300;2023-03-01T15:45:20;7.80;92.20
28244;DHT22;15510;52.512;13.300;2023-03-01T15:47:48;7.70;93.00
28244;DHT22;15510;52.512;13.300;2023-03-01T15:50:27;7.70;92.10
28244;DHT22;15510;52.512;13.300;2023-03-01T15:52:54;7.70;92.20
28244;DHT22;15510;52.512;13.300;2023-03-01T15:55:23;7.70;92.80
28244;DHT22;15510;52.512;13.300;2023-03-01T15:58:00;7.70;92.00
28244;DHT22;15510;52.512;13.300;2023-03-01T16:00:27;7.60;92.90
28244;DHT22;15510;52.512;13.300;2023-03-01T16:02:54;7.60;92.70
28244;DHT22;15510;52.512;13.300;2023-03-01T16:05:28;7.60;92.20
28244;DHT22;15510;52.512;13.300;2023-03-01T16:07:56;7.60;92.50
28244;DHT22;15510;52.512;13.300;2023-03-01T16:10:22;7.50;93.70
28244;DHT22;15510;52.512;13.300;2023-03-01T16:12:50;7.50;94.10
28244;DHT22;15510;52.512;13.300;2023-03-01T16:17:46;7.50;94.10
28244;DHT22;15510;52.512;13.300;2023-03-01T16:20:21;7.40;93.80
28244;DHT22;15510;52.512;13.300;2023-03-01T16:22:47;7.40;94.50
28244;DHT22;15510;52.512;13.300;2023-03-01T16:25:15;7.40;94.20
28244;DHT22;15510;52.512;13.300;2023-03-01T16:27:46;7.40;94.60
28244;DHT22;15510;52.512;13.300;2023-03-01T16:30:13;7.40;95.20
28244;DHT22;15510;52.512;13.300;2023-03-01T16:32:40;7.30;95.60
28244;DHT22;15510;52.512;13.300;2023-03-01T16:35:08;7.30;95.40
28244;DHT22;15510;52.512;13.300;2023-03-01T16:37:36;7.30;95.90
28244;DHT22;15510;52.512;13.300;2023-03-01T16:40:02;7.30;96.40
28244;DHT22;15510;52.512;13.300;2023-03-01T16:42:33;7.20;96.70
28244;DHT22;15510;52.512;13.300;2023-03-01T16:45:05;7.10;96.80
28244;DHT22;15510;52.512;13.300;2023-03-01T16:47:33;7.10;97.50
28244;DHT22;15510;52.512;13.300;2023-03-01T16:49:59;7.00;98.20
28244;DHT22;15510;52.512;13.300;2023-03-01T16:52:25;7.00;98.20
28244;DHT22;15510;52.512;13.300;2023-03-01T16:54:51;7.00;98.30
28244;DHT22;15510;52.512;13.300;2023-03-01T16:57:17;7.00;98.80
28244;DHT22;15510;52.512;13.300;2023-03-01T16:59:43;6.90;99.70
28244;DHT22;15510;52.512;13.300;2023-03-01T17:02:11;6.90;99.90
28244;DHT22;15510;52.512;13.300;2023-03-01T17:04:40;6.90;99.90
28244;DHT22;15510;52.512;13.300;2023-03-01T17:07:06;6.80;99.90
28244;DHT22;15510;52.512;13.300;2023-03-01T17:09:36;6.80;99.90
28244;DHT22;15510;52.512;13.300;2023-03-01T17:12:03;6.80;99.90
28244;DHT22;15510;52.512;13.300;2023-03-01T17:14:29;6.70;99.90
28244;DHT22;15510;52.512;13.300;2023-03-01T17:16:55;6.70;99.90
28244;DHT22;15510;52.512;13.300;2023-03-01T17:19:20;6.60;99.90
28244;DHT22;15510;52.512;13.300;2023-03-01T17:21:46;6.60;99.90
28244;DHT22;15510;52.512;13.300;2023-03-01T17:24:12;6.60;99.90
28244;DHT22;15510;52.512;13.300;2023-03-01T17:26:38;6.60;99.90
28244;DHT22;15510;52.512;13.300;2023-03-01T17:29:06;6.60;99.90
28244;DHT22;15510;52.512;13.300;2023-03-01T17:31:33;6.50;99.90
28244;DHT22;15510;52.512;13.300;2023-03-01T17:33:58;6.50;99.90
28244;DHT22;15510;52.512;13.300;2023-03-01T17:36:24;6.40;99.90
28244;DHT22;15510;52.512;13.300;2023-03-01T17:38:51;6.40;99.90
28244;DHT22;15510;52.512;13.300;2023-03-01T17:41:17;6.40;99.90
28244;DHT22;15510;52.512;13.300;2023-03-01T17:43:46;6.30;99.90
28244;DHT22;15510;52.512;13.300;2023-03-01T17:46:12;6.30;99.90
28244;DHT22;15510;52.512;13.300;2023-03-01T17:48:38;6.40;99.90
28244;DHT22;15510;52.512;13.300;2023-03-01T17:51:09;6.30;99.90
28244;DHT22;15510;52.512;13.300;2023-03-01T17:53:36;6.30;99.90
28244;DHT22;15510;52.512;13.300;2023-03-01T17:56:04;6.30;99.90